Time;durP1;ratioP1;P1;durP2;ratioP2;P2;SDS_P1;SDS_P2;PMS_P1;PMS_P2;Temp;Humidity;BMP_temperature;BMP_pressure;BME280_temperature;BME280_humidity;BME280_pressure;Samples;Min_cycle;Max_cycle;Signal;HPM_P1;HPM_P2
2020/12/07 00:00:19;;;;;;;13.25;6.35;;;;;;;8.52;81.82;99130.44;4847982;29;20113;-81
2020/12/07 00:02:50;;;;;;;10.43;6.55;;;;;;;8.48;81.96;99130.97;4856056;29;20029;-82
2020/12/07 00:05:20;;;;;;;14.27;7.53;;;;;;;8.52;81.56;99130.44;4864127;29;20080;-79
2020/12/07 00:07:45;;;;;;;12.15;6.63;;;;;;;8.50;81.47;99125.38;4845278;29;20033;-79
2020/12/07 00:10:10;;;;;;;13.20;7.88;;;;;;;8.49;81.65;99132.59;4847525;29;20025;-79
2020/12/07 00:12:36;;;;;;;9.90;6.05;;;;;;;8.50;81.62;99141.38;4851426;29;20044;-80
2020/12/07 00:15:04;;;;;;;10.50;6.53;;;;;;;8.48;81.70;99136.31;4863515;29;20029;-80
2020/12/07 00:17:30;;;;;;;11.23;6.78;;;;;;;8.46;81.42;99125.09;4844869;29;20034;-78
2020/12/07 00:19:55;;;;;;;12.60;6.75;;;;;;;8.45;81.77;99128.78;4857775;29;20097;-77
2020/12/07 00:22:23;;;;;;;13.98;7.25;;;;;;;8.48;81.78;99132.81;4868984;29;20029;-78
2020/12/07 00:24:48;;;;;;;11.10;6.97;;;;;;;8.47;81.64;99133.88;4873452;29;20034;-78
2020/12/07 00:27:29;;;;;;;13.38;7.13;;;;;;;8.48;81.56;99130.97;4861954;29;20117;-78
2020/12/07 00:29:55;;;;;;;12.30;7.63;;;;;;;8.46;81.02;99119.75;4855825;29;20056;-77
2020/12/07 00:32:21;;;;;;;12.68;6.63;;;;;;;8.47;80.99;99121.38;4861701;29;20089;-78
2020/12/07 00:34:48;;;;;;;12.63;6.65;;;;;;;8.48;80.92;99122.16;4845149;29;20033;-78
2020/12/07 00:37:14;;;;;;;12.52;6.20;;;;;;;8.49;81.35;99123.78;4844575;29;20086;-80
2020/12/07 00:39:39;;;;;;;13.15;5.85;;;;;;;8.47;81.20;99123.22;4844536;29;20620;-79
2020/12/07 00:42:05;;;;;;;11.90;6.55;;;;;;;8.48;81.05;99120.31;4856869;29;20086;-79
2020/12/07 00:44:31;;;;;;;11.32;5.32;;;;;;;8.46;81.88;99113.63;4845190;29;20029;-79
2020/12/07 00:46:57;;;;;;;9.10;5.03;;;;;;;8.43;82.01;99122.91;4844742;29;20038;-78
2020/12/07 00:49:23;;;;;;;10.57;5.40;;;;;;;8.38;82.13;99116.78;4845339;29;20032;-79
2020/12/07 00:51:48;;;;;;;13.57;5.82;;;;;;;8.35;82.47;99110.09;4852678;29;20033;-79
2020/12/07 00:54:15;;;;;;;11.35;6.55;;;;;;;8.31;82.53;99114.31;4844649;29;20041;-79
2020/12/07 00:56:40;;;;;;;11.70;6.35;;;;;;;8.27;82.70;99105.25;4845487;29;20041;-78
2020/12/07 00:59:06;;;;;;;10.27;5.50;;;;;;;8.27;83.21;99114.03;4871270;29;20182;-78
2020/12/07 01:01:31;;;;;;;11.55;6.78;;;;;;;8.26;82.90;99115.09;4855418;29;20416;-78
2020/12/07 01:03:56;;;;;;;7.03;4.80;;;;;;;8.23;83.39;99102.31;4861722;29;20033;-79
2020/12/07 01:06:28;;;;;;;13.70;7.03;;;;;;;8.21;82.95;99096.44;4861551;29;20124;-79
2020/12/07 01:08:58;;;;;;;13.73;7.05;;;;;;;8.21;83.12;99106.28;4844997;29;20178;-81
2020/12/07 01:17:27;;;;;;;10.10;6.60;;;;;;;8.23;82.95;99096.19;4855715;29;20514;-79
2020/12/07 01:19:53;;;;;;;11.52;5.80;;;;;;;8.22;83.21;99090.03;4846961;29;20041;-77
2020/12/07 01:22:18;;;;;;;7.80;5.55;;;;;;;8.25;82.54;99094.88;4849596;29;20196;-78
2020/12/07 01:24:43;;;;;;;12.32;6.53;;;;;;;8.26;83.02;99099.09;4839535;29;20038;-79
2020/12/07 01:27:21;;;;;;;10.02;5.28;;;;;;;8.27;82.80;99097.25;4845459;29;20483;-80
2020/12/07 01:29:46;;;;;;;13.85;7.22;;;;;;;8.27;82.97;99092.72;4846935;29;20032;-78
2020/12/07 01:32:12;;;;;;;13.82;6.60;;;;;;;8.27;82.45;99094.59;4816312;29;20129;-79
2020/12/07 01:34:37;;;;;;;8.90;5.43;;;;;;;8.28;82.56;99090.88;4809969;29;20022;-78
2020/12/07 01:37:02;;;;;;;12.18;7.28;;;;;;;8.28;82.98;99096.22;4821870;29;20045;-78
2020/12/07 01:39:28;;;;;;;16.00;6.70;;;;;;;8.28;82.49;99090.88;4826301;29;20119;-78
2020/12/07 01:41:54;;;;;;;10.93;6.50;;;;;;;8.28;82.66;99089.00;4835222;29;20057;-78
2020/12/07 01:44:19;;;;;;;13.93;6.95;;;;;;;8.30;82.80;99078.06;4844198;29;20655;-77
2020/12/07 01:46:45;;;;;;;12.05;6.22;;;;;;;8.28;82.66;99075.69;4818451;29;20125;-77
2020/12/07 01:49:11;;;;;;;11.98;6.65;;;;;;;8.31;82.42;99075.19;4841072;29;20412;-77
2020/12/07 01:51:37;;;;;;;13.82;7.45;;;;;;;8.30;82.64;99076.22;4813491;29;20035;-78
2020/12/07 01:54:03;;;;;;;11.93;6.32;;;;;;;8.31;82.24;99075.19;4808424;29;20401;-78
2020/12/07 01:56:30;;;;;;;12.80;5.65;;;;;;;8.32;82.46;99075.97;4825233;29;20470;-78
2020/12/07 01:58:59;;;;;;;10.18;5.55;;;;;;;8.29;82.31;99069.28;4844115;29;20117;-78
2020/12/07 02:01:26;;;;;;;8.20;5.28;;;;;;;8.27;82.05;99065.28;4832586;29;20034;-77
2020/12/07 02:03:53;;;;;;;11.35;5.50;;;;;;;8.26;82.13;99069.00;4825160;29;20094;-79
2020/12/07 02:06:19;;;;;;;11.50;5.22;;;;;;;8.24;82.23;99066.63;4842531;29;20518;-79
2020/12/07 02:08:48;;;;;;;8.65;5.72;;;;;;;8.21;82.77;99067.13;4826545;29;20030;-78
2020/12/07 02:11:14;;;;;;;13.40;5.40;;;;;;;8.18;82.43;99065.78;4825419;29;20037;-79
2020/12/07 02:13:39;;;;;;;9.73;5.78;;;;;;;8.16;82.83;99054.56;4839441;29;20423;-78
2020/12/07 02:16:04;;;;;;;10.00;5.35;;;;;;;8.18;82.52;99054.34;4818466;29;20035;-79
2020/12/07 02:18:30;;;;;;;9.80;5.13;;;;;;;8.16;82.78;99059.13;4808757;29;20126;-78
2020/12/07 02:20:55;;;;;;;9.15;5.30;;;;;;;8.16;83.01;99069.78;4814454;29;20036;-78
2020/12/07 02:23:21;;;;;;;10.52;5.97;;;;;;;8.16;82.76;99061.78;4826014;29;20116;-78
2020/12/07 02:25:46;;;;;;;12.60;5.20;;;;;;;8.17;82.58;99061.50;4830043;29;20049;-77
2020/12/07 02:28:11;;;;;;;8.43;4.25;;;;;;;8.20;81.82;99062.84;4840202;29;20547;-78
2020/12/07 02:30:37;;;;;;;9.85;5.35;;;;;;;8.20;82.29;99056.72;4833017;29;20042;-77
2020/12/07 02:33:02;;;;;;;8.68;4.82;;;;;;;8.18;82.16;99049.78;4833122;29;20044;-77
2020/12/07 02:35:27;;;;;;;10.23;5.32;;;;;;;8.12;82.30;99040.19;4821159;29;20037;-76
2020/12/07 02:37:53;;;;;;;12.93;5.57;;;;;;;8.11;82.27;99035.91;4816384;29;20058;-78
2020/12/07 02:40:18;;;;;;;9.27;5.80;;;;;;;8.07;82.05;99034.84;4825850;29;20037;-77
2020/12/07 02:42:44;;;;;;;8.55;5.38;;;;;;;8.05;82.38;99034.28;4832174;29;20056;-77
2020/12/07 02:45:14;;;;;;;13.20;5.90;;;;;;;8.04;82.72;99034.56;4825748;29;20042;-77
2020/12/07 02:47:40;;;;;;;10.07;6.38;;;;;;;8.04;82.27;99035.34;4817263;29;20041;-77
2020/12/07 02:50:07;;;;;;;13.75;7.00;;;;;;;8.04;82.54;99037.22;4825049;29;20132;-77
2020/12/07 02:52:33;;;;;;;8.18;5.88;;;;;;;8.04;82.36;99035.34;4841426;29;20053;-77
2020/12/07 02:55:00;;;;;;;12.48;6.10;;;;;;;8.06;82.27;99035.09;4825611;29;20038;-77
2020/12/07 02:57:26;;;;;;;9.35;6.35;;;;;;;8.05;82.44;99038.81;4829858;29;20045;-76
2020/12/07 02:59:52;;;;;;;13.90;5.75;;;;;;;8.07;82.21;99042.81;4841049;29;20030;-76
2020/12/07 03:02:18;;;;;;;11.60;5.55;;;;;;;8.09;82.02;99038.06;4836628;29;20066;-77
2020/12/07 03:04:44;;;;;;;14.35;6.22;;;;;;;8.13;81.93;99039.13;4806339;29;20047;-77
2020/12/07 03:07:10;;;;;;;8.82;5.90;;;;;;;8.13;82.01;99049.78;4806886;29;20508;-78
2020/12/07 03:09:36;;;;;;;10.05;5.13;;;;;;;8.17;82.36;99045.53;4823477;29;20043;-77
2020/12/07 03:12:03;;;;;;;8.48;5.22;;;;;;;8.14;81.38;99038.06;4822155;29;20032;-77
2020/12/07 03:14:28;;;;;;;8.18;5.20;;;;;;;8.18;81.69;99041.00;4824473;29;20034;-76
2020/12/07 03:16:54;;;;;;;9.70;5.22;;;;;;;8.21;81.60;99051.13;4831477;29;20403;-77
2020/12/07 03:19:19;;;;;;;11.73;5.88;;;;;;;8.21;81.22;99055.66;4806537;29;20481;-77
2020/12/07 03:21:45;;;;;;;9.50;5.53;;;;;;;8.23;81.47;99059.69;4823471;29;20030;-77
2020/12/07 03:24:10;;;;;;;6.80;4.88;;;;;;;8.28;81.34;99066.91;4821495;29;20469;-77
2020/12/07 03:26:36;;;;;;;9.10;5.38;;;;;;;8.28;81.22;99058.91;4818343;29;20452;-77
2020/12/07 03:29:03;;;;;;;9.63;5.93;;;;;;;8.28;81.17;99058.91;4834849;29;20039;-76
2020/12/07 03:31:30;;;;;;;8.15;5.47;;;;;;;8.30;81.08;99064.75;4828845;29;20066;-77
2020/12/07 03:33:56;;;;;;;11.13;6.47;;;;;;;8.28;81.30;99064.22;4840484;29;20073;-77
2020/12/07 03:36:21;;;;;;;8.75;5.60;;;;;;;8.29;81.05;99071.16;4823673;29;20042;-76
2020/12/07 03:38:47;;;;;;;12.65;6.72;;;;;;;8.26;81.12;99066.34;4823268;29;20038;-77
2020/12/07 03:41:12;;;;;;;9.75;5.55;;;;;;;8.25;81.50;99064.75;4842022;29;20376;-77
2020/12/07 03:43:37;;;;;;;9.82;5.72;;;;;;;8.21;81.23;99064.44;4836150;29;20033;-78
2020/12/07 03:46:03;;;;;;;7.82;4.40;;;;;;;8.16;81.88;99067.09;4838591;29;20045;-78
2020/12/07 03:48:28;;;;;;;8.13;4.25;;;;;;;8.13;81.63;99062.28;4825405;29;20539;-78
2020/12/07 03:50:54;;;;;;;9.40;5.13;;;;;;;8.10;81.74;99060.94;4827703;29;20030;-77
2020/12/07 03:53:19;;;;;;;7.60;4.50;;;;;;;8.09;82.44;99067.34;4827720;29;20138;-78
2020/12/07 03:55:44;;;;;;;8.50;4.82;;;;;;;8.06;82.00;99067.84;4830611;29;20026;-77
2020/12/07 03:58:10;;;;;;;9.85;5.03;;;;;;;8.06;82.57;99067.84;4828563;29;20037;-77
2020/12/07 04:00:35;;;;;;;8.13;5.05;;;;;;;8.06;82.61;99073.19;4811793;29;20026;-77
2020/12/07 04:03:04;;;;;;;6.00;4.53;;;;;;;8.04;82.66;99075.28;4854527;29;20040;-77
2020/12/07 04:05:34;;;;;;;8.73;5.05;;;;;;;8.04;82.81;99069.97;4826346;29;20412;-77
2020/12/07 04:08:00;;;;;;;11.02;4.72;;;;;;;8.02;82.42;99066.78;4827439;29;20167;-77
2020/12/07 04:10:25;;;;;;;8.50;4.68;;;;;;;8.02;82.71;99067.56;4827948;29;20125;-78
2020/12/07 04:12:50;;;;;;;8.52;4.80;;;;;;;8.02;82.48;99061.44;4827611;29;20033;-78
2020/12/07 04:15:16;;;;;;;10.80;6.47;;;;;;;8.01;82.51;99059.84;4824955;29;20034;-78
2020/12/07 04:17:41;;;;;;;12.52;5.63;;;;;;;7.99;82.47;99051.31;4830242;29;20483;-77
2020/12/07 04:20:06;;;;;;;10.85;6.47;;;;;;;7.99;82.28;99048.63;4827424;29;20548;-77
2020/12/07 04:22:32;;;;;;;11.23;6.63;;;;;;;7.96;82.24;99038.53;4827306;29;20034;-78
2020/12/07 04:24:57;;;;;;;9.27;5.60;;;;;;;7.97;82.14;99045.44;4832254;29;20068;-78
2020/12/07 04:27:23;;;;;;;10.15;5.72;;;;;;;7.95;82.80;99048.34;4845045;29;20029;-77
2020/12/07 04:29:48;;;;;;;11.38;5.75;;;;;;;7.94;82.60;99040.63;4845543;29;20034;-77
2020/12/07 04:32:14;;;;;;;11.10;5.55;;;;;;;7.93;82.47;99044.34;4825019;29;20120;-77
2020/12/07 04:34:39;;;;;;;11.95;6.63;;;;;;;7.92;82.70;99045.41;4820248;29;20042;-78
2020/12/07 04:37:05;;;;;;;14.63;7.10;;;;;;;7.88;83.07;99033.69;4820197;29;20067;-78
2020/12/07 04:39:30;;;;;;;11.38;6.55;;;;;;;7.89;82.69;99036.06;4842084;29;20037;-78
2020/12/07 04:41:59;;;;;;;10.07;5.72;;;;;;;7.89;82.34;99033.41;4826115;29;20061;-77
2020/12/07 04:44:25;;;;;;;9.50;6.07;;;;;;;7.89;82.50;99030.75;4821818;29;20038;-78
2020/12/07 04:46:51;;;;;;;10.63;6.80;;;;;;;7.89;82.40;99029.97;4809825;29;20049;-80
2020/12/07 04:49:18;;;;;;;9.48;5.65;;;;;;;7.91;82.13;99033.16;4810959;29;20095;-79
2020/12/07 04:51:44;;;;;;;10.13;6.78;;;;;;;7.92;82.18;99024.09;4833654;29;20101;-78
2020/12/07 04:54:14;;;;;;;10.85;6.57;;;;;;;7.94;81.95;99027.31;4845546;29;20045;-78
2020/12/07 04:56:40;;;;;;;9.88;6.13;;;;;;;7.94;82.05;99027.31;4843952;29;20516;-78
2020/12/07 04:59:08;;;;;;;14.98;8.20;;;;;;;7.98;81.84;99021.22;4827301;29;20240;-78
2020/12/07 05:01:33;;;;;;;11.43;7.47;;;;;;;7.99;81.73;99024.66;4824746;29;20034;-77
2020/12/07 05:07:09;;;;;;;16.08;8.68;;;;;;;7.98;82.02;99026.53;4864292;29;20128;-79
2020/12/07 05:09:37;;;;;;;11.10;7.28;;;;;;;7.98;82.05;99023.06;4831285;29;20570;-77
2020/12/07 05:12:16;;;;;;;9.93;7.28;;;;;;;7.96;82.23;99028.66;4811878;29;20073;-80
2020/12/07 05:14:41;;;;;;;14.80;6.28;;;;;;;7.95;82.12;99032.38;4811658;29;20303;-78
2020/12/07 05:17:08;;;;;;;15.32;8.25;;;;;;;7.94;82.68;99030.75;4835840;29;20038;-78
2020/12/07 05:19:33;;;;;;;12.25;7.82;;;;;;;7.93;82.63;99018.50;4807755;29;20038;-77
2020/12/07 05:21:59;;;;;;;17.65;8.30;;;;;;;7.92;82.60;99024.91;4809679;29;20105;-79
2020/12/07 05:24:24;;;;;;;14.20;7.53;;;;;;;7.90;82.91;99029.69;4820014;29;20037;-77
2020/12/07 05:26:50;;;;;;;18.15;9.60;;;;;;;7.90;82.90;99026.22;4808982;29;20046;-78
2020/12/07 05:29:29;;;;;;;12.35;7.13;;;;;;;7.86;83.00;99028.63;4830846;29;20121;-79
2020/12/07 05:31:56;;;;;;;14.90;8.23;;;;;;;7.85;83.33;99021.69;4817761;29;20484;-78
2020/12/07 05:34:25;;;;;;;14.40;6.30;;;;;;;7.79;83.13;99028.84;4826226;29;20038;-79
2020/12/07 05:36:55;;;;;;;14.25;7.18;;;;;;;7.77;83.41;99027.50;4825659;29;20077;-77
2020/12/07 05:39:21;;;;;;;13.98;7.57;;;;;;;7.74;84.01;99022.66;4825118;29;20037;-77
2020/12/07 05:41:47;;;;;;;10.68;5.63;;;;;;;7.72;83.69;99027.47;4825465;29;20034;-81
2020/12/07 05:44:12;;;;;;;10.60;6.07;;;;;;;7.71;83.83;99031.19;4825634;29;20033;-77
2020/12/07 05:46:41;;;;;;;9.02;6.07;;;;;;;7.67;83.65;99020.25;4825504;29;20533;-76
2020/12/07 05:49:07;;;;;;;10.70;5.53;;;;;;;7.67;84.02;99023.69;4825735;29;20029;-76
2020/12/07 05:51:34;;;;;;;9.38;6.03;;;;;;;7.66;83.95;99023.97;4832212;29;20037;-76
2020/12/07 05:54:00;;;;;;;11.68;5.45;;;;;;;7.63;84.06;99032.44;4825148;29;20547;-76
2020/12/07 05:56:30;;;;;;;13.85;6.38;;;;;;;7.65;84.60;99033.00;4841101;29;20030;-76
2020/12/07 05:59:17;;;;;;;9.68;5.78;;;;;;;7.62;84.55;99028.22;4806382;29;20034;-76
2020/12/07 06:01:44;;;;;;;7.78;5.15;;;;;;;7.61;84.66;99024.72;4807996;29;20046;-76
2020/12/07 06:04:11;;;;;;;13.82;6.13;;;;;;;7.59;84.45;99016.22;4825230;29;20042;-76
2020/12/07 06:06:42;;;;;;;7.05;5.03;;;;;;;7.56;84.44;99016.72;4832112;29;20041;-77
2020/12/07 06:09:14;;;;;;;12.02;6.53;;;;;;;7.58;84.96;99019.13;4833371;29;20419;-76
2020/12/07 06:11:46;;;;;;;11.07;5.63;;;;;;;7.53;84.48;99003.91;4824803;29;20064;-75
2020/12/07 06:14:12;;;;;;;7.85;5.05;;;;;;;7.52;84.45;99008.44;4824697;29;20041;-77
2020/12/07 06:16:37;;;;;;;21.60;8.60;;;;;;;7.50;84.99;98999.91;4824279;29;20045;-77
2020/12/07 06:19:13;;;;;;;13.13;6.63;;;;;;;7.50;84.74;99007.88;4840975;29;20033;-77
2020/12/07 06:21:48;;;;;;;12.52;6.53;;;;;;;7.53;84.17;99007.38;4841047;29;20126;-77
2020/12/07 06:24:13;;;;;;;15.93;7.00;;;;;;;7.54;84.24;99000.19;4825932;29;20025;-76
2020/12/07 06:26:38;;;;;;;9.25;6.10;;;;;;;7.56;83.81;99005.28;4859337;29;20517;-77
2020/12/07 06:29:05;;;;;;;10.57;5.95;;;;;;;7.57;83.88;99005.00;4842705;29;20025;-77
2020/12/07 06:31:30;;;;;;;11.60;7.40;;;;;;;7.59;83.84;99010.91;4829688;29;20078;-77
2020/12/07 06:33:56;;;;;;;16.33;8.57;;;;;;;7.61;84.06;99006.09;4842114;29;20067;-77
2020/12/07 06:36:23;;;;;;;14.30;6.13;;;;;;;7.61;83.92;99008.75;4840733;29;20042;-78
2020/12/07 06:38:49;;;;;;;14.98;7.57;;;;;;;7.61;84.17;99010.63;4827218;29;20120;-77
2020/12/07 06:41:39;;;;;;;12.35;7.47;;;;;;;7.64;83.99;99016.25;4824603;29;20069;-78
2020/12/07 06:44:12;;;;;;;12.07;7.30;;;;;;;7.65;83.83;99014.38;4840376;29;20049;-78
2020/12/07 06:49:38;;;;;;;18.88;10.18;;;;;;;7.68;83.71;99009.34;4841980;29;20491;-77
2020/12/07 06:52:14;;;;;;;15.10;8.15;;;;;;;7.68;83.59;99008.53;4839549;29;20034;-78
2020/12/07 06:57:29;;;;;;;38.38;20.13;;;;;;;7.73;83.46;99005.13;4850996;29;20048;-79
2020/12/07 06:59:58;;;;;;;24.43;10.33;;;;;;;7.72;83.18;99001.63;4824172;29;20456;-79
2020/12/07 07:02:23;;;;;;;14.13;7.70;;;;;;;7.73;83.41;98999.78;4823885;29;20488;-78
2020/12/07 07:04:57;;;;;;;10.80;7.47;;;;;;;7.72;83.46;99012.28;4823552;29;20034;-79
2020/12/07 07:07:25;;;;;;;18.30;8.65;;;;;;;7.72;83.85;99006.97;4827063;29;20503;-78
2020/12/07 07:09:51;;;;;;;15.75;9.43;;;;;;;7.74;83.55;98998.72;4828921;29;20034;-78
2020/12/07 07:12:17;;;;;;;15.43;7.90;;;;;;;7.73;83.30;99005.91;4833535;29;20049;-78
2020/12/07 07:14:46;;;;;;;12.63;7.43;;;;;;;7.72;83.59;99006.16;4822393;29;20121;-78
2020/12/07 07:17:12;;;;;;;13.50;7.78;;;;;;;7.72;83.35;99000.84;4823388;29;20038;-78
2020/12/07 07:19:37;;;;;;;15.38;8.20;;;;;;;7.73;83.22;98995.25;4823875;29;20030;-78
2020/12/07 07:22:03;;;;;;;13.15;7.78;;;;;;;7.73;83.27;98991.81;4832881;29;20471;-79
2020/12/07 07:24:36;;;;;;;14.68;8.82;;;;;;;7.72;83.65;98991.00;4827381;29;20535;-78
2020/12/07 07:29:50;;;;;;;10.93;6.65;;;;;;;7.70;83.68;98987.78;4817625;29;20547;-77
2020/12/07 07:32:17;;;;;;;12.50;7.93;;;;;;;7.67;83.42;98981.09;4827252;29;20034;-78
2020/12/07 07:34:51;;;;;;;15.77;8.90;;;;;;;7.70;83.67;98982.44;4844779;29;20034;-78
2020/12/07 07:37:17;;;;;;;18.42;10.50;;;;;;;7.70;83.58;98985.13;4845600;29;20038;-78
2020/12/07 07:39:44;;;;;;;15.57;9.15;;;;;;;7.70;83.45;98982.44;4818152;29;20062;-78
2020/12/07 07:42:16;;;;;;;21.92;12.27;;;;;;;7.75;83.72;98989.66;4860555;29;20038;-77
2020/12/07 07:44:45;;;;;;;23.52;15.88;;;;;;;7.78;83.36;98997.94;4852634;29;20034;-77
2020/12/07 07:47:19;;;;;;;26.17;14.57;;;;;;;7.80;83.52;98992.34;4843128;29;20121;-76
2020/12/07 08:03:43;;;;;;;15.05;7.28;;;;;;;7.82;83.29;98999.03;4833328;29;20072;-77
2020/12/07 08:16:39;;;;;;;17.50;8.05;;;;;;;8.10;81.94;98986.34;4786096;29;20106;-77
2020/12/07 08:19:20;;;;;;;15.20;7.13;;;;;;;8.17;82.09;98992.25;4842834;29;20062;-76
2020/12/07 08:21:46;;;;;;;19.88;9.02;;;;;;;8.21;81.47;98987.19;4848364;29;20033;-77
2020/12/07 08:24:11;;;;;;;20.83;9.02;;;;;;;8.24;81.61;98980.53;4861156;29;20037;-76
2020/12/07 08:26:42;;;;;;;14.95;7.70;;;;;;;8.26;81.83;98978.44;4859568;29;20041;-77
2020/12/07 08:29:08;;;;;;;13.57;7.30;;;;;;;8.31;81.40;98981.91;4845627;29;20034;-77
2020/12/07 08:31:35;;;;;;;14.40;7.65;;;;;;;8.32;81.40;98978.19;4844190;29;20036;-77
2020/12/07 08:34:15;;;;;;;12.02;7.43;;;;;;;8.32;81.24;98977.38;4843439;29;20533;-78
2020/12/07 08:36:43;;;;;;;7.90;4.53;;;;;;;8.27;81.17;98967.50;4824858;29;20034;-77
2020/12/07 08:39:09;;;;;;;9.73;5.00;;;;;;;8.20;81.33;98966.94;4828816;29;20037;-78
2020/12/07 08:41:36;;;;;;;12.75;6.40;;;;;;;8.15;81.67;98957.09;4831485;29;20098;-78
2020/12/07 08:44:07;;;;;;;17.73;6.65;;;;;;;8.08;81.97;98951.22;4845349;29;20455;-78
2020/12/07 08:46:35;;;;;;;11.25;6.57;;;;;;;8.00;82.59;98935.72;4841645;29;20034;-78
2020/12/07 08:49:02;;;;;;;14.68;6.43;;;;;;;7.96;82.82;98940.00;4826201;29;20419;-78
2020/12/07 08:51:30;;;;;;;12.38;6.75;;;;;;;7.94;83.28;98931.44;4838220;29;20025;-78
2020/12/07 08:53:56;;;;;;;10.43;6.00;;;;;;;7.93;82.96;98937.84;4836835;29;20042;-78
2020/12/07 08:56:21;;;;;;;14.45;7.13;;;;;;;7.92;83.16;98930.91;4838803;29;20129;-79
2020/12/07 08:58:47;;;;;;;11.75;5.93;;;;;;;7.91;83.32;98930.13;4826052;29;20029;-78
2020/12/07 09:01:13;;;;;;;18.02;6.82;;;;;;;7.91;83.67;98922.13;4836294;29;20037;-79
2020/12/07 09:03:41;;;;;;;12.02;7.18;;;;;;;7.92;83.29;98914.94;4851753;29;20033;-78
2020/12/07 09:06:08;;;;;;;;;;;;;;;7.93;83.17;98909.34;4828337;29;20495;-78
2020/12/07 09:08:36;;;;;;;10.73;6.45;;;;;;;7.94;83.21;98907.47;4842072;29;19917;-80
2020/12/07 09:11:06;;;;;;;13.40;7.10;;;;;;;7.95;82.86;98906.44;4826059;29;20113;-78
2020/12/07 09:13:32;;;;;;;14.35;6.53;;;;;;;7.96;83.45;98898.16;4843256;29;20035;-79
2020/12/07 09:15:58;;;;;;;19.65;9.05;;;;;;;7.98;83.03;98889.91;4836313;29;20081;-78
2020/12/07 09:18:24;;;;;;;13.05;7.22;;;;;;;8.01;83.25;98881.41;4842183;29;20116;-78
2020/12/07 09:20:49;;;;;;;15.68;6.20;;;;;;;8.00;83.49;98875.28;4843932;29;20419;-78
2020/12/07 09:23:16;;;;;;;16.92;7.28;;;;;;;8.02;83.59;98867.03;4860588;29;20025;-78
2020/12/07 09:25:41;;;;;;;10.65;5.47;;;;;;;8.03;83.17;98868.63;4842001;29;21368;-77
2020/12/07 09:28:08;;;;;;;10.50;6.05;;;;;;;8.01;83.26;98862.78;4860749;29;20026;-77
2020/12/07 09:30:33;;;;;;;9.38;6.03;;;;;;;8.03;83.60;98863.28;4843378;29;20044;-78
2020/12/07 09:32:59;;;;;;;7.32;4.43;;;;;;;8.02;83.26;98857.16;4849753;29;20033;-77
2020/12/07 09:35:24;;;;;;;8.32;5.38;;;;;;;8.04;83.75;98864.88;4841844;29;20033;-78
2020/12/07 09:37:50;;;;;;;9.80;3.38;;;;;;;8.03;83.47;98849.97;4841719;29;20384;-78
2020/12/07 09:40:16;;;;;;;7.97;4.10;;;;;;;8.04;83.58;98853.44;4825144;29;20568;-77
2020/12/07 09:42:41;;;;;;;11.27;4.00;;;;;;;8.04;83.97;98856.13;4825725;29;20045;-81
2020/12/07 09:45:08;;;;;;;5.55;2.88;;;;;;;7.99;83.57;98847.03;4843599;29;20116;-78
2020/12/07 09:48:05;;;;;;;5.32;3.22;;;;;;;7.99;83.19;98846.25;4829449;29;20022;-81
2020/12/07 09:50:30;;;;;;;7.32;4.30;;;;;;;7.96;83.41;98847.56;4825773;29;20030;-80
2020/12/07 09:52:56;;;;;;;7.20;3.75;;;;;;;7.92;84.10;98838.53;4846824;29;20029;-80
2020/12/07 09:55:25;;;;;;;5.63;3.50;;;;;;;7.90;83.73;98837.97;4836537;29;20041;-79
2020/12/07 09:57:50;;;;;;;6.18;3.58;;;;;;;7.88;83.45;98850.75;4824146;29;20041;-79
2020/12/07 10:00:16;;;;;;;5.82;3.72;;;;;;;7.85;83.66;98835.31;4830263;29;20415;-79
2020/12/07 10:02:41;;;;;;;7.47;4.32;;;;;;;7.83;83.38;98832.88;4827669;29;20068;-79
2020/12/07 10:05:07;;;;;;;7.18;4.15;;;;;;;7.84;83.68;98836.38;4824900;29;20038;-77
2020/12/07 10:07:32;;;;;;;5.40;3.08;;;;;;;7.83;83.56;98826.78;4825626;29;20126;-78
2020/12/07 10:09:58;;;;;;;6.78;3.22;;;;;;;7.83;83.88;98830.22;4840341;29;20140;-78
2020/12/07 10:12:23;;;;;;;6.38;3.72;;;;;;;7.83;83.28;98826.78;4841874;29;20055;-79
2020/12/07 10:14:49;;;;;;;6.80;3.67;;;;;;;7.82;83.69;98831.31;4880635;23;20071;-80
2020/12/07 10:17:14;;;;;;;4.72;3.72;;;;;;;7.82;83.66;98830.50;4847499;29;20053;-78
2020/12/07 10:19:40;;;;;;;5.38;3.17;;;;;;;7.80;83.46;98833.44;4842599;29;20032;-78
2020/12/07 10:22:05;;;;;;;6.93;4.50;;;;;;;7.79;83.75;98834.50;4835353;29;20037;-78
2020/12/07 10:24:32;;;;;;;7.05;4.90;;;;;;;7.78;83.70;98834.75;4837784;29;20501;-79
2020/12/07 10:26:58;;;;;;;5.75;3.55;;;;;;;7.78;83.50;98827.56;4829531;29;20041;-77
2020/12/07 10:29:23;;;;;;;7.03;4.28;;;;;;;7.79;83.35;98820.38;4851273;29;20599;-80
2020/12/07 10:31:49;;;;;;;11.85;6.05;;;;;;;7.78;83.51;98816.13;4836262;29;20080;-78
2020/12/07 10:34:14;;;;;;;14.30;5.72;;;;;;;7.80;83.29;98812.13;4841668;29;20475;-78
2020/12/07 10:36:44;;;;;;;12.20;4.22;;;;;;;7.78;83.60;98811.59;4841401;29;20057;-78
2020/12/07 10:39:11;;;;;;;12.25;5.90;;;;;;;7.78;83.41;98798.28;4842544;29;20045;-80
2020/12/07 10:41:36;;;;;;;9.50;4.65;;;;;;;7.79;83.49;98802.53;4841909;29;20031;-80
2020/12/07 10:44:03;;;;;;;14.05;6.15;;;;;;;7.80;83.66;98793.50;4848200;29;20037;-80
2020/12/07 10:46:28;;;;;;;10.23;5.22;;;;;;;7.81;83.68;98794.28;4842845;29;20037;-79
2020/12/07 10:48:54;;;;;;;7.38;3.95;;;;;;;7.81;83.45;98788.97;4842162;29;20040;-79
2020/12/07 10:51:20;;;;;;;10.65;4.68;;;;;;;7.81;83.78;98787.13;4841970;29;20034;-79
2020/12/07 10:53:46;;;;;;;9.27;4.93;;;;;;;7.83;83.58;98795.63;4841717;29;20470;-78
2020/12/07 10:56:16;;;;;;;13.52;5.72;;;;;;;7.82;83.63;98782.56;4841614;29;20037;-78
2020/12/07 10:58:42;;;;;;;13.18;4.22;;;;;;;7.81;83.64;98779.13;4841070;29;20097;-78
2020/12/07 11:01:08;;;;;;;10.50;3.97;;;;;;;7.80;83.87;98774.84;4841996;29;20033;-79
2020/12/07 11:03:34;;;;;;;6.85;3.75;;;;;;;7.79;84.37;98767.94;4841557;29;20041;-80
2020/12/07 11:06:01;;;;;;;11.10;5.18;;;;;;;7.80;84.58;98763.41;4842589;29;20033;-79
2020/12/07 11:08:35;;;;;;;10.77;5.13;;;;;;;7.79;84.55;98757.28;4841790;29;20048;-79
2020/12/07 11:11:00;;;;;;;12.32;5.80;;;;;;;7.80;84.75;98758.88;4842181;29;20473;-78
2020/12/07 11:13:31;;;;;;;8.32;4.93;;;;;;;7.81;85.31;98757.00;4843331;29;20037;-78
2020/12/07 11:16:01;;;;;;;6.40;4.60;;;;;;;7.81;85.11;98757.84;4866275;29;20438;-78
2020/12/07 11:18:26;;;;;;;9.55;4.43;;;;;;;7.81;84.98;98755.16;4860354;29;20513;-79
2020/12/07 11:20:52;;;;;;;5.65;3.25;;;;;;;7.79;85.47;98751.97;4860464;29;20033;-79
2020/12/07 11:23:18;;;;;;;12.50;4.70;;;;;;;7.79;85.74;98757.28;4865140;29;20041;-80
2020/12/07 11:25:45;;;;;;;8.52;4.18;;;;;;;7.78;86.04;98755.69;4875511;29;20021;-82
2020/12/07 11:28:38;;;;;;;7.95;3.65;;;;;;;7.79;85.74;98743.19;4876410;29;20088;-80
2020/12/07 11:31:26;;;;;;;7.20;3.92;;;;;;;7.76;86.53;98755.13;4877157;29;20036;-81
2020/12/07 11:34:08;;;;;;;6.25;3.90;;;;;;;7.75;86.91;98753.56;4866155;29;20033;-80
2020/12/07 11:37:14;;;;;;;5.68;3.70;;;;;;;7.74;87.01;98741.31;4867730;29;20033;-81
2020/12/07 11:42:17;;;;;;;4.20;3.55;;;;;;;7.72;86.78;98742.66;4889816;29;20033;-80
2020/12/07 11:44:42;;;;;;;7.90;4.45;;;;;;;7.72;87.03;98729.34;4865035;29;20025;-80
2020/12/07 11:47:10;;;;;;;10.00;4.88;;;;;;;7.71;87.31;98720.53;4861942;29;20490;-80
2020/12/07 11:49:36;;;;;;;9.52;4.50;;;;;;;7.73;87.37;98713.09;4859423;29;20025;-78
2020/12/07 11:52:03;;;;;;;9.63;4.93;;;;;;;7.74;87.71;98711.22;4861951;29;20112;-81
2020/12/07 11:54:28;;;;;;;5.70;3.72;;;;;;;7.74;87.24;98709.38;4863000;29;20025;-80
2020/12/07 11:56:54;;;;;;;8.32;5.38;;;;;;;7.76;87.26;98715.22;4870101;29;20036;-82
2020/12/07 11:59:19;;;;;;;7.28;4.43;;;;;;;7.77;87.39;98713.38;4866248;29;20036;-82
2020/12/07 12:01:45;;;;;;;6.35;4.38;;;;;;;7.75;87.57;98707.50;4872399;29;20037;-80
2020/12/07 12:04:10;;;;;;;9.50;5.05;;;;;;;7.75;87.79;98696.84;4873095;29;20029;-82
2020/12/07 12:06:37;;;;;;;13.23;6.32;;;;;;;7.76;87.88;98696.56;4871722;29;20052;-80
2020/12/07 12:09:11;;;;;;;13.30;6.85;;;;;;;7.75;87.83;98696.84;4867392;29;20231;-81
2020/12/07 12:11:38;;;;;;;8.75;4.15;;;;;;;7.75;87.82;98683.53;4896327;29;20029;-80
2020/12/07 12:14:12;;;;;;;8.73;4.60;;;;;;;7.77;87.95;98690.19;4877158;29;20021;-80
2020/12/07 12:16:43;;;;;;;5.40;3.30;;;;;;;7.74;88.27;98677.44;4894846;29;20136;-81
2020/12/07 12:19:10;;;;;;;9.38;3.20;;;;;;;7.76;88.21;98677.16;4891192;29;20495;-81
2020/12/07 12:24:29;;;;;;;6.18;3.80;;;;;;;7.74;88.74;98663.31;5284388;23;20134;-82